createdAt,value
2022-12-19T00:08:21.956Z,-7.79
2022-12-19T00:16:45.554Z,-7.74
2022-12-19T00:25:08.873Z,-7.70
2022-12-19T00:33:33.728Z,-7.75
2022-12-19T00:41:58.709Z,-7.70
2022-12-19T00:50:21.667Z,-7.68
2022-12-19T00:58:47.314Z,-7.78
2022-12-19T01:07:10.777Z,-7.89
2022-12-19T01:15:33.588Z,-7.95
2022-12-19T01:24:02.006Z,-7.96
2022-12-19T01:32:25.056Z,-7.96
2022-12-19T01:40:53.942Z,-8.04
2022-12-19T01:49:31.522Z,-8.19
2022-12-19T01:57:56.800Z,-8.21
2022-12-19T02:06:19.905Z,-8.23
2022-12-19T02:14:43.393Z,-8.35
2022-12-19T02:23:27.865Z,-8.51
2022-12-19T02:31:54.503Z,-8.62
2022-12-19T02:40:26.759Z,-8.70
2022-12-19T02:48:52.627Z,-8.91
2022-12-19T02:57:28.158Z,-9.33
2022-12-19T03:06:14.279Z,-9.64
2022-12-19T03:14:37.586Z,-9.95
2022-12-19T03:23:00.553Z,-10.26
2022-12-19T03:31:28.435Z,-10.45
2022-12-19T03:39:57.057Z,-10.61
2022-12-19T03:48:47.713Z,-10.67
2022-12-19T03:57:21.690Z,-10.68
2022-12-19T04:05:47.405Z,-10.75
2022-12-19T04:14:19.249Z,-10.80
2022-12-19T04:22:49.770Z,-10.84
2022-12-19T04:31:15.492Z,-10.83
2022-12-19T04:39:38.604Z,-10.77
2022-12-19T04:48:01.473Z,-10.75
2022-12-19T04:56:24.499Z,-10.83
2022-12-19T05:04:47.441Z,-10.85
2022-12-19T05:13:10.303Z,-10.85
2022-12-19T05:21:33.365Z,-10.84
2022-12-19T05:29:56.371Z,-10.85
2022-12-19T05:38:19.397Z,-10.90
2022-12-19T05:46:42.256Z,-10.97
2022-12-19T05:55:06.741Z,-11.01
2022-12-19T06:03:29.741Z,-11.04
2022-12-19T06:11:52.735Z,-11.11
2022-12-19T06:20:15.699Z,-11.14
2022-12-19T06:28:38.662Z,-11.11
2022-12-19T06:37:05.250Z,-11.04
2022-12-19T06:45:31.957Z,-11.01
2022-12-19T06:53:55.881Z,-10.96
2022-12-19T07:02:29.055Z,-10.97
2022-12-19T07:10:53.944Z,-10.99
2022-12-19T07:19:17.361Z,-10.98
2022-12-19T07:27:40.679Z,-10.89
2022-12-19T07:36:04.191Z,-10.75
2022-12-19T07:44:27.045Z,-10.52
2022-12-19T07:52:50.059Z,-9.80
2022-12-19T08:01:12.952Z,-9.70
2022-12-19T08:09:36.236Z,-9.48
2022-12-19T08:17:59.478Z,-8.50
2022-12-19T08:26:26.452Z,-7.93
2022-12-19T08:34:50.425Z,-7.61
2022-12-19T08:43:13.514Z,-7.67
2022-12-19T08:51:36.402Z,-8.10
2022-12-19T08:59:59.795Z,-8.46
2022-12-19T09:08:24.808Z,-8.63
2022-12-19T09:16:47.752Z,-8.58
2022-12-19T09:25:11.089Z,-8.67
2022-12-19T09:33:42.943Z,-8.73
2022-12-19T09:42:40.915Z,-8.70
2022-12-19T09:51:17.003Z,-8.54
2022-12-19T09:59:51.687Z,-8.29
2022-12-19T10:08:32.620Z,-7.99
2022-12-19T10:17:25.168Z,-7.61
2022-12-19T10:26:20.844Z,-7.23
2022-12-19T10:34:46.230Z,-6.94
2022-12-19T10:43:32.363Z,-6.69
2022-12-19T10:51:55.955Z,-6.53
2022-12-19T11:00:20.176Z,-6.38
2022-12-19T11:08:43.178Z,-6.33
2022-12-19T11:26:09.458Z,-6.33
2022-12-19T11:30:47.447Z,-6.35
2022-12-19T11:34:51.458Z,-6.33
2022-12-19T11:43:44.631Z,-6.28
2022-12-19T12:01:39.516Z,-6.05
2022-12-19T12:13:45.643Z,-5.96
2022-12-19T12:31:26.086Z,-6.01
2022-12-19T12:32:03.988Z,-6.07
2022-12-19T12:46:15.918Z,-5.99
2022-12-19T12:54:42.173Z,-5.98
2022-12-19T13:03:16.164Z,-6.00
2022-12-19T13:12:04.349Z,-6.05
2022-12-19T13:20:27.813Z,-6.14
2022-12-19T13:28:50.993Z,-6.17
2022-12-19T13:40:00.874Z,-6.20
2022-12-19T13:46:07.410Z,-6.26
2022-12-19T13:54:51.923Z,-6.35
2022-12-19T14:03:21.614Z,-6.47
2022-12-19T14:12:29.644Z,-6.65
2022-12-19T14:22:02.715Z,-6.89
2022-12-19T14:30:26.062Z,-7.11
2022-12-19T14:39:22.603Z,-7.27
2022-12-19T14:54:05.399Z,-7.35
2022-12-19T14:56:31.089Z,-7.42
2022-12-19T15:05:13.903Z,-7.44
2022-12-19T15:14:57.777Z,-7.41
2022-12-19T15:22:20.107Z,-7.31
2022-12-19T15:30:50.607Z,-7.28
2022-12-19T15:39:15.612Z,-7.30
2022-12-19T15:47:38.715Z,-7.31
2022-12-19T15:56:02.327Z,-7.35
2022-12-19T16:04:26.972Z,-7.33
2022-12-19T16:12:53.419Z,-7.29
2022-12-19T16:21:27.514Z,-7.25
2022-12-19T16:29:55.704Z,-7.28
2022-12-19T16:38:19.453Z,-7.28
2022-12-19T16:46:48.700Z,-7.25
2022-12-19T16:55:15.146Z,-7.19
2022-12-19T17:03:41.682Z,-7.08
2022-12-19T17:12:05.015Z,-6.98
2022-12-19T17:20:35.548Z,-6.94
2022-12-19T17:28:58.398Z,-6.89
2022-12-19T17:37:21.389Z,-6.86
2022-12-19T17:45:45.170Z,-6.85
2022-12-19T17:54:11.333Z,-6.86
2022-12-19T18:02:39.519Z,-6.85
2022-12-19T18:11:05.325Z,-6.80
2022-12-19T18:19:32.003Z,-6.76
2022-12-19T18:27:56.118Z,-6.69
2022-12-19T18:36:23.363Z,-6.64
2022-12-19T18:44:46.307Z,-6.63
2022-12-19T18:53:14.148Z,-6.56
2022-12-19T19:01:42.905Z,-6.47
2022-12-19T19:10:19.682Z,-6.38
2022-12-19T19:19:01.105Z,-6.26
2022-12-19T19:27:23.887Z,-6.16
2022-12-19T19:35:51.392Z,-6.06
2022-12-19T19:44:14.354Z,-5.97
2022-12-19T19:52:41.073Z,-5.92
2022-12-19T20:01:11.980Z,-5.88
2022-12-19T20:09:35.069Z,-5.83
2022-12-19T20:17:58.051Z,-5.75
2022-12-19T20:26:20.981Z,-5.70
2022-12-19T20:34:43.974Z,-5.64
2022-12-19T20:43:07.046Z,-5.58
2022-12-19T20:51:29.977Z,-5.48
2022-12-19T20:59:52.847Z,-5.41
2022-12-19T21:08:15.657Z,-5.34
2022-12-19T21:16:38.640Z,-5.26
2022-12-19T21:25:01.658Z,-5.16
2022-12-19T21:33:24.699Z,-5.16
2022-12-19T21:41:47.593Z,-5.23
2022-12-19T21:50:14.024Z,-5.22
2022-12-19T21:58:36.985Z,-5.18
2022-12-19T22:06:59.783Z,-5.13
2022-12-19T22:15:22.712Z,-5.00
2022-12-19T22:23:49.435Z,-4.93
2022-12-19T22:32:12.305Z,-4.84
2022-12-19T22:40:35.237Z,-4.79
2022-12-19T22:49:00.542Z,-4.70
2022-12-19T22:57:23.510Z,-4.63
2022-12-19T23:05:51.700Z,-4.52
2022-12-19T23:14:18.203Z,-4.44
2022-12-19T23:22:41.009Z,-4.33
2022-12-19T23:31:06.563Z,-4.25
2022-12-19T23:39:29.396Z,-4.18
2022-12-19T23:47:52.204Z,-4.10
2022-12-19T23:56:18.599Z,-3.99
